Perch River, New York
Current Conditions -  °F | °C
As of 12:56 PM on Sunday 23 Nov 2014 (Local Time) from KART Reporting Station
Overcast Overcast  
Wind Chill: 53°   Ceiling: 3400
Heat Index: 53°   Visibility: 10mi
Dew Point: 39°   Wind: 7mph
Humidity: 59%   Direction: 210°SSW
Pressure: 30.03"   Gusts: NA
Location:  44.0116°N, 76.0789°W
Report Text: KART 231756Z AUTO 21006KT 10SM OVC034 12/04 A3003 RMK AO2 SLP172 T01170039 10117 20072 55001
Loading
Personal Weather Stations






























Interactive Weather Map New forecast layout! Learn more

10-Day Weather Forecast

Advertisements
Track Severe Weather on mobile